Time;durP1;ratioP1;P1;durP2;ratioP2;P2;SDS_P1;SDS_P2;PMS_P1;PMS_P2;Temp;Humidity;BMP_temperature;BMP_pressure;BME280_temperature;BME280_humidity;BME280_pressure;Samples;Min_cycle;Max_cycle;Signal;HPM_P1;HPM_P2
2023/05/23 00:01:06;;;;;;;8.45;7.65;;;;;;;16.62;100.00;96436.47;5074451;28;20233;-62
2023/05/23 00:03:33;;;;;;;10.05;8.73;;;;;;;16.54;100.00;96439.22;5074633;28;20221;-63
2023/05/23 00:06:01;;;;;;;9.00;8.18;;;;;;;16.51;100.00;96431.56;5074488;28;20222;-64
2023/05/23 00:08:27;;;;;;;8.43;7.75;;;;;;;16.50;100.00;96437.94;5074273;28;20209;-63
2023/05/23 00:10:54;;;;;;;9.38;8.20;;;;;;;16.46;100.00;96433.97;5074220;28;20210;-62
2023/05/23 00:13:20;;;;;;;8.20;7.30;;;;;;;16.50;100.00;96440.59;5074671;28;20214;-61
2023/05/23 00:15:47;;;;;;;8.30;7.40;;;;;;;16.40;100.00;96435.53;5078201;28;20198;-62
2023/05/23 00:18:15;;;;;;;8.10;7.40;;;;;;;16.33;100.00;96428.47;5078620;28;20694;-63
2023/05/23 00:20:42;;;;;;;8.05;7.43;;;;;;;16.31;100.00;96433.97;5078203;28;20221;-65
2023/05/23 00:23:09;;;;;;;8.27;7.68;;;;;;;16.31;100.00;96431.31;5076325;28;20238;-65
2023/05/23 00:25:35;;;;;;;8.15;7.35;;;;;;;16.39;100.00;96425.06;5075685;28;20222;-63
2023/05/23 00:28:02;;;;;;;7.70;7.10;;;;;;;16.42;100.00;96422.00;5074150;28;20213;-61
2023/05/23 00:30:30;;;;;;;7.85;7.15;;;;;;;16.40;100.00;96419.50;5073958;28;20252;-63
2023/05/23 00:32:57;;;;;;;8.60;7.90;;;;;;;16.29;100.00;96425.34;5074747;28;20240;-63
2023/05/23 00:35:25;;;;;;;8.93;7.30;;;;;;;16.27;100.00;96429.19;5072631;28;20218;-62
2023/05/23 00:37:53;;;;;;;8.10;7.40;;;;;;;16.23;100.00;96434.06;5073775;28;20206;-63
2023/05/23 00:40:19;;;;;;;8.40;7.70;;;;;;;16.20;100.00;96434.41;5073944;28;20560;-62
2023/05/23 00:42:46;;;;;;;8.27;7.53;;;;;;;16.16;100.00;96437.63;5074060;28;20198;-62
2023/05/23 00:45:12;;;;;;;9.13;7.18;;;;;;;16.19;100.00;96426.63;5073676;28;20238;-62
2023/05/23 00:47:39;;;;;;;8.15;7.45;;;;;;;16.19;100.00;96431.94;5073564;28;20545;-62
2023/05/23 00:50:08;;;;;;;7.55;6.95;;;;;;;16.17;100.00;96433.97;5073382;28;20202;-63
2023/05/23 00:52:37;;;;;;;9.52;7.70;;;;;;;16.06;100.00;96434.41;5074403;28;20210;-63
2023/05/23 00:55:05;;;;;;;8.15;7.35;;;;;;;16.03;100.00;96424.09;5073776;28;20202;-63
2023/05/23 00:57:33;;;;;;;8.60;7.90;;;;;;;16.00;100.00;96427.13;5073601;28;20206;-64
2023/05/23 00:59:59;;;;;;;8.23;7.43;;;;;;;15.98;100.00;96429.97;5073379;28;20198;-64
2023/05/23 01:02:27;;;;;;;8.50;7.47;;;;;;;16.01;100.00;96434.97;5073049;28;20272;-61
2023/05/23 01:04:54;;;;;;;10.50;7.55;;;;;;;15.96;100.00;96437.34;5073875;28;20206;-63
2023/05/23 01:07:20;;;;;;;8.10;7.47;;;;;;;15.94;100.00;96434.84;5072546;28;20198;-63
2023/05/23 01:09:49;;;;;;;7.68;7.07;;;;;;;15.94;100.00;96429.50;5072296;28;20222;-62
2023/05/23 01:12:20;;;;;;;8.18;7.57;;;;;;;15.94;100.00;96429.50;5072298;28;20559;-62
2023/05/23 01:14:56;;;;;;;10.10;8.00;;;;;;;15.92;100.00;96426.22;5073932;28;20575;-62
2023/05/23 01:17:29;;;;;;;8.30;7.53;;;;;;;15.90;100.00;96428.25;5073143;28;20209;-65
2023/05/23 01:20:00;;;;;;;8.60;7.82;;;;;;;15.80;100.00;96430.31;5073266;28;20210;-61
2023/05/23 01:22:38;;;;;;;8.38;7.35;;;;;;;15.75;100.00;96429.19;5072398;28;20252;-61
2023/05/23 01:25:11;;;;;;;9.32;7.32;;;;;;;15.74;100.00;96428.38;5072906;28;20202;-60
2023/05/23 01:27:55;;;;;;;8.73;7.90;;;;;;;15.75;100.00;96431.88;5072943;28;20293;-63
2023/05/23 01:30:23;;;;;;;9.82;8.07;;;;;;;15.73;100.00;96437.38;5070180;28;20665;-62
2023/05/23 01:32:51;;;;;;;8.23;7.30;;;;;;;15.74;100.00;96432.88;5072253;28;20224;-62
2023/05/23 01:35:22;;;;;;;8.50;7.80;;;;;;;15.73;100.00;96445.38;5076781;28;20210;-63
2023/05/23 01:37:48;;;;;;;8.38;7.68;;;;;;;15.67;100.00;96451.41;5072736;28;20206;-62
2023/05/23 01:40:15;;;;;;;8.80;7.75;;;;;;;15.65;100.00;96453.44;5072801;28;20210;-63
2023/05/23 01:42:42;;;;;;;7.93;7.32;;;;;;;15.64;100.00;96446.44;5072025;28;20627;-63
2023/05/23 01:45:10;;;;;;;8.88;8.00;;;;;;;15.64;100.00;96451.78;5071469;28;20202;-62
2023/05/23 01:47:38;;;;;;;10.52;8.43;;;;;;;15.64;100.00;96454.44;5073343;28;20210;-63
2023/05/23 01:50:05;;;;;;;9.00;8.10;;;;;;;15.63;100.00;96457.28;5072183;28;20238;-62
2023/05/23 01:52:34;;;;;;;9.07;7.70;;;;;;;15.66;100.00;96451.63;5072388;28;20640;-63
2023/05/23 01:55:00;;;;;;;8.82;8.05;;;;;;;15.66;100.00;96452.41;5072583;28;20248;-62
2023/05/23 01:57:29;;;;;;;8.52;7.82;;;;;;;15.63;100.00;96447.44;5072914;28;20206;-62
2023/05/23 01:59:56;;;;;;;8.88;7.65;;;;;;;15.61;100.00;96449.47;5071610;28;20213;-63
2023/05/23 02:02:23;;;;;;;8.82;8.00;;;;;;;15.59;100.00;96446.16;5071793;28;20198;-62
2023/05/23 02:04:50;;;;;;;8.95;8.05;;;;;;;15.64;100.00;96450.94;5072390;28;20199;-63
2023/05/23 02:07:21;;;;;;;8.35;7.68;;;;;;;15.65;100.00;96450.78;5072269;28;20580;-63
2023/05/23 02:09:48;;;;;;;8.77;7.97;;;;;;;15.60;100.00;96458.47;5072601;28;20222;-62
2023/05/23 02:12:14;;;;;;;9.30;7.78;;;;;;;15.59;100.00;96454.16;5072505;28;20252;-64
2023/05/23 02:14:41;;;;;;;8.88;7.90;;;;;;;15.57;100.00;96461.50;5071774;28;20222;-63
2023/05/23 02:17:08;;;;;;;11.48;8.75;;;;;;;15.60;100.00;96461.16;5072595;28;20619;-62
2023/05/23 02:19:36;;;;;;;9.10;8.18;;;;;;;15.58;100.00;96459.66;5072427;28;20654;-63
2023/05/23 02:22:03;;;;;;;8.80;8.00;;;;;;;15.58;100.00;96457.84;5075322;28;20210;-63
2023/05/23 02:24:30;;;;;;;9.15;8.25;;;;;;;15.59;100.00;96467.47;5077156;28;20226;-64
2023/05/23 02:26:56;;;;;;;9.18;8.27;;;;;;;15.65;100.00;96464.13;5074831;28;20253;-62
2023/05/23 02:29:23;;;;;;;8.88;8.10;;;;;;;15.67;100.00;96466.59;5070910;28;20654;-61
2023/05/23 02:31:49;;;;;;;9.65;8.85;;;;;;;15.63;100.00;96465.28;5071648;28;20203;-65
2023/05/23 02:34:16;;;;;;;8.93;8.20;;;;;;;15.63;100.00;96458.13;5071578;28;20206;-61
2023/05/23 02:36:44;;;;;;;9.35;8.45;;;;;;;15.60;100.00;96458.47;5070583;28;20700;-63
2023/05/23 02:39:10;;;;;;;9.10;8.40;;;;;;;15.59;100.00;96462.13;5070994;28;21329;-64
2023/05/23 02:41:37;;;;;;;9.55;8.55;;;;;;;15.64;100.00;96459.78;5071315;28;20225;-63
2023/05/23 02:44:03;;;;;;;9.50;8.70;;;;;;;15.62;100.00;96471.63;5071252;28;20206;-64
2023/05/23 02:46:30;;;;;;;9.27;8.35;;;;;;;15.61;100.00;96465.47;5070834;28;20291;-66
2023/05/23 02:48:56;;;;;;;9.70;8.52;;;;;;;15.58;100.00;96460.50;5070832;28;20891;-64
2023/05/23 02:51:23;;;;;;;9.57;8.73;;;;;;;15.55;100.00;96466.19;5070860;28;20642;-63
2023/05/23 02:53:50;;;;;;;9.10;8.30;;;;;;;15.55;100.00;96460.88;5071295;28;20207;-63
2023/05/23 02:56:17;;;;;;;9.25;8.27;;;;;;;15.55;100.00;96466.19;5069418;28;20207;-63
2023/05/23 02:58:44;;;;;;;9.27;8.32;;;;;;;15.57;100.00;96469.50;5069362;28;20213;-62
2023/05/23 03:01:10;;;;;;;9.60;8.80;;;;;;;15.52;100.00;96466.53;5070791;28;20194;-64
2023/05/23 03:03:37;;;;;;;9.15;8.32;;;;;;;15.52;100.00;96471.84;5071155;28;20206;-62
2023/05/23 03:06:05;;;;;;;9.43;8.60;;;;;;;15.46;100.00;96467.22;5070639;28;20218;-64
2023/05/23 03:08:31;;;;;;;9.02;8.15;;;;;;;15.50;100.00;96471.22;5070982;28;20207;-63
2023/05/23 03:10:59;;;;;;;9.07;8.30;;;;;;;15.53;100.00;96470.03;5070178;28;20203;-63
2023/05/23 03:13:26;;;;;;;9.88;8.88;;;;;;;15.52;100.00;96477.19;5070551;28;20198;-64
2023/05/23 03:15:52;;;;;;;9.90;9.00;;;;;;;15.53;100.00;96478.84;5070292;28;20281;-63
2023/05/23 03:18:18;;;;;;;9.52;8.57;;;;;;;15.56;100.00;96477.66;5070806;28;20206;-64
2023/05/23 03:20:45;;;;;;;9.55;8.65;;;;;;;15.61;100.00;96481.47;5070667;28;20211;-65
2023/05/23 03:23:11;;;;;;;9.90;8.98;;;;;;;15.61;100.00;96488.63;5070795;28;21154;-64
2023/05/23 03:25:38;;;;;;;10.13;9.27;;;;;;;15.59;100.00;96488.78;5070491;28;20218;-62
2023/05/23 03:28:05;;;;;;;10.60;9.55;;;;;;;15.60;100.00;96477.13;5070327;28;20645;-64
2023/05/23 03:30:32;;;;;;;9.70;8.90;;;;;;;15.64;100.00;96482.94;5069326;28;20210;-65
2023/05/23 03:32:59;;;;;;;9.82;9.02;;;;;;;15.65;100.00;96482.78;5069449;28;20210;-63
2023/05/23 03:35:25;;;;;;;9.73;8.93;;;;;;;15.66;100.00;96491.59;5070516;28;20211;-65
2023/05/23 03:37:52;;;;;;;10.55;9.60;;;;;;;15.66;100.00;96487.06;5070634;28;20202;-65
2023/05/23 03:40:18;;;;;;;10.13;9.07;;;;;;;15.67;100.00;96486.06;5070770;28;20213;-65
2023/05/23 03:42:45;;;;;;;10.98;9.95;;;;;;;15.71;100.00;96489.22;5070908;28;20199;-65
2023/05/23 03:45:13;;;;;;;10.15;9.07;;;;;;;15.72;100.00;96489.06;5069856;28;20232;-63
2023/05/23 03:47:39;;;;;;;10.98;10.02;;;;;;;15.73;100.00;96482.69;5070608;28;20309;-62
2023/05/23 03:50:06;;;;;;;9.88;8.90;;;;;;;15.74;100.00;96484.34;5070472;28;20202;-62
2023/05/23 03:52:33;;;;;;;11.07;9.27;;;;;;;15.79;100.00;96491.81;5071853;28;20198;-62
2023/05/23 03:54:59;;;;;;;10.15;9.20;;;;;;;15.77;100.00;96491.16;5070934;28;20228;-64
2023/05/23 03:57:26;;;;;;;10.10;9.25;;;;;;;15.80;100.00;96491.63;5071476;28;20271;-64
2023/05/23 03:59:52;;;;;;;9.88;9.05;;;;;;;15.86;100.00;96495.44;5071301;28;20203;-64
2023/05/23 04:02:20;;;;;;;10.83;9.70;;;;;;;15.85;100.00;96496.44;5072599;28;20206;-65
2023/05/23 04:04:48;;;;;;;10.70;9.07;;;;;;;15.83;100.00;96504.63;5072978;28;20836;-64
2023/05/23 04:07:15;;;;;;;9.77;8.95;;;;;;;15.84;100.00;96498.28;5070655;28;20230;-63
2023/05/23 04:09:41;;;;;;;9.75;8.73;;;;;;;15.91;100.00;96507.22;5070414;28;20201;-61
2023/05/23 04:12:09;;;;;;;9.70;8.85;;;;;;;15.91;100.00;96509.88;5069455;28;20202;-62
2023/05/23 04:14:36;;;;;;;9.75;8.85;;;;;;;15.96;100.00;96511.19;5069630;28;20209;-62
2023/05/23 04:17:02;;;;;;;9.75;8.95;;;;;;;15.98;100.00;96504.66;5070045;28;20206;-63
2023/05/23 04:19:30;;;;;;;9.68;8.77;;;;;;;16.02;100.00;96510.44;5069703;28;20198;-62
2023/05/23 04:21:56;;;;;;;9.85;8.85;;;;;;;16.03;100.00;96517.47;5069507;28;20202;-62
2023/05/23 04:24:23;;;;;;;9.70;8.80;;;;;;;16.08;100.00;96520.44;5069693;28;20246;-61
2023/05/23 04:26:49;;;;;;;10.13;9.18;;;;;;;16.09;100.00;96517.56;5069562;28;20564;-63
2023/05/23 04:29:16;;;;;;;9.90;8.98;;;;;;;16.10;100.00;96524.56;5069452;28;20214;-61
2023/05/23 04:31:44;;;;;;;9.23;8.43;;;;;;;16.12;100.00;96522.53;5069849;28;20203;-64
2023/05/23 04:34:11;;;;;;;9.00;8.23;;;;;;;16.13;100.00;96534.03;5070408;28;20206;-63
2023/05/23 04:36:39;;;;;;;10.30;9.25;;;;;;;16.15;100.00;96522.19;5069821;28;20211;-63
2023/05/23 04:39:05;;;;;;;9.32;8.63;;;;;;;16.17;100.00;96517.50;5070184;28;20214;-64
2023/05/23 04:41:32;;;;;;;10.00;9.20;;;;;;;16.22;100.00;96522.31;5071944;28;20210;-63
2023/05/23 04:43:58;;;;;;;10.40;9.40;;;;;;;16.28;100.00;96516.22;5073590;28;20194;-62
2023/05/23 04:46:25;;;;;;;10.20;9.00;;;;;;;16.31;100.00;96521.19;5073071;28;20237;-62
2023/05/23 04:48:52;;;;;;;9.20;8.38;;;;;;;16.32;100.00;96525.53;5072177;28;20291;-63
2023/05/23 04:51:20;;;;;;;9.57;8.77;;;;;;;16.35;100.00;96528.66;5072254;28;20198;-62
2023/05/23 04:53:49;;;;;;;9.85;8.73;;;;;;;16.42;100.00;96531.44;5073795;28;20194;-60
2023/05/23 04:56:16;;;;;;;10.80;9.82;;;;;;;16.44;100.00;96538.25;5073081;28;20209;-62
2023/05/23 04:58:44;;;;;;;10.45;9.50;;;;;;;16.50;100.00;96531.38;5072598;28;20217;-63
2023/05/23 05:01:10;;;;;;;10.40;9.50;;;;;;;16.56;100.00;96536.00;5073423;28;20246;-62
2023/05/23 05:03:37;;;;;;;10.43;9.52;;;;;;;16.61;100.00;96536.28;5073531;28;20207;-62
2023/05/23 05:06:04;;;;;;;10.30;9.30;;;;;;;16.62;100.00;96532.59;5073186;28;20220;-61
2023/05/23 05:08:31;;;;;;;10.55;9.48;;;;;;;16.65;100.00;96531.41;5073657;28;20217;-60
2023/05/23 05:10:59;;;;;;;10.95;9.90;;;;;;;16.68;100.00;96528.38;5074035;28;20524;-60
2023/05/23 05:13:25;;;;;;;10.20;9.32;;;;;;;16.71;100.00;96528.00;5072616;28;20217;-61
2023/05/23 05:15:52;;;;;;;11.27;10.18;;;;;;;16.75;100.00;96529.31;5074551;28;20225;-62
2023/05/23 05:18:19;;;;;;;11.18;10.10;;;;;;;16.80;100.00;96527.72;5074319;28;20290;-59
2023/05/23 05:20:46;;;;;;;10.90;9.80;;;;;;;16.86;100.00;96532.31;5073234;28;20198;-63
2023/05/23 05:23:12;;;;;;;9.80;8.88;;;;;;;16.98;100.00;96529.19;5072440;28;20816;-61
2023/05/23 05:25:40;;;;;;;10.40;9.40;;;;;;;17.13;100.00;96532.69;5072760;28;21396;-61
2023/05/23 05:28:07;;;;;;;10.55;9.45;;;;;;;17.30;100.00;96536.78;5071969;28;20834;-61
2023/05/23 05:30:35;;;;;;;11.38;10.38;;;;;;;17.55;100.00;96535.44;5072607;28;20551;-60
2023/05/23 05:33:02;;;;;;;11.23;10.07;;;;;;;17.86;100.00;96533.34;5072692;28;20538;-61
2023/05/23 05:35:29;;;;;;;11.88;10.88;;;;;;;18.08;100.00;96533.34;5072663;28;20229;-61
2023/05/23 05:37:56;;;;;;;11.70;10.60;;;;;;;18.21;100.00;96533.47;5072194;28;20640;-62
2023/05/23 05:40:22;;;;;;;11.45;10.35;;;;;;;18.44;100.00;96528.69;5072146;28;20199;-61
2023/05/23 05:42:48;;;;;;;11.27;10.15;;;;;;;18.59;100.00;96534.81;5072046;28;20214;-62
2023/05/23 05:45:17;;;;;;;11.60;10.57;;;;;;;18.77;100.00;96529.81;5072174;28;20203;-61
2023/05/23 05:47:46;;;;;;;12.10;10.90;;;;;;;19.09;100.00;96533.69;5072234;28;20229;-62
2023/05/23 05:50:13;;;;;;;9.98;9.18;;;;;;;19.29;100.00;96534.59;5072490;28;20264;-63
2023/05/23 05:52:39;;;;;;;11.30;10.27;;;;;;;19.45;100.00;96540.69;5071816;28;20293;-62
2023/05/23 05:55:07;;;;;;;10.88;9.88;;;;;;;19.67;100.00;96534.97;5072204;28;20198;-61
2023/05/23 05:57:33;;;;;;;10.80;9.80;;;;;;;19.67;100.00;96532.28;5072815;28;20202;-63
2023/05/23 06:00:00;;;;;;;10.32;9.45;;;;;;;19.83;100.00;96545.34;5072409;28;20218;-62
2023/05/23 06:02:28;;;;;;;10.60;9.60;;;;;;;19.99;100.00;96544.13;5073175;28;20214;-61
2023/05/23 06:04:54;;;;;;;9.82;8.93;;;;;;;20.25;100.00;96546.03;5073093;28;20217;-64
2023/05/23 06:07:21;;;;;;;10.93;9.93;;;;;;;20.56;100.00;96548.94;5071775;28;20523;-63
2023/05/23 06:09:47;;;;;;;10.95;10.05;;;;;;;20.65;97.63;96552.25;5072205;28;20210;-61
2023/05/23 06:12:13;;;;;;;10.88;9.93;;;;;;;20.91;100.00;96543.31;5072508;28;20210;-62
2023/05/23 06:14:40;;;;;;;10.88;9.75;;;;;;;21.13;97.29;96556.34;5071445;28;20207;-62
2023/05/23 06:17:07;;;;;;;9.98;9.18;;;;;;;21.24;96.63;96561.06;5073277;28;20259;-61
2023/05/23 06:19:37;;;;;;;11.77;9.90;;;;;;;21.48;98.65;96554.16;5088864;28;20198;-63
2023/05/23 06:22:04;;;;;;;11.35;10.27;;;;;;;21.62;92.52;96555.75;5085000;28;20194;-61
2023/05/23 06:24:30;;;;;;;11.82;10.68;;;;;;;21.63;94.49;96557.41;5079965;28;20234;-62
2023/05/23 06:26:58;;;;;;;11.10;10.00;;;;;;;21.63;95.03;96556.56;5071454;28;20222;-62
2023/05/23 06:29:24;;;;;;;11.40;10.40;;;;;;;21.95;92.56;96557.47;5071135;28;20237;-62
2023/05/23 06:31:51;;;;;;;11.05;9.93;;;;;;;21.82;94.40;96552.97;5070930;28;21371;-61
2023/05/23 06:34:17;;;;;;;13.80;10.18;;;;;;;21.81;93.25;96554.81;5071378;28;20206;-61
2023/05/23 06:36:47;;;;;;;11.50;10.35;;;;;;;21.80;91.00;96557.72;5071253;28;20198;-62
2023/05/23 06:39:13;;;;;;;12.73;10.80;;;;;;;21.78;89.90;96562.50;5071861;28;20583;-62
2023/05/23 06:41:40;;;;;;;10.80;9.80;;;;;;;21.68;91.84;96562.94;5071261;28;20198;-61
2023/05/23 06:44:06;;;;;;;10.88;9.43;;;;;;;21.94;91.00;96569.28;5070892;28;20537;-61
2023/05/23 06:46:33;;;;;;;10.88;9.88;;;;;;;21.94;90.82;96564.72;5071041;28;20207;-62
2023/05/23 06:48:59;;;;;;;10.90;9.90;;;;;;;21.82;92.12;96561.03;5071500;28;20217;-61
2023/05/23 06:51:26;;;;;;;11.60;10.10;;;;;;;21.91;90.76;96564.31;5071089;28;20224;-62
2023/05/23 06:53:55;;;;;;;11.27;10.07;;;;;;;22.00;88.73;96561.16;5071091;28;20199;-62
2023/05/23 06:56:22;;;;;;;11.27;10.18;;;;;;;21.96;87.67;96565.34;5070667;28;20656;-61
2023/05/23 06:58:48;;;;;;;10.95;9.80;;;;;;;22.00;90.77;96568.44;5070976;28;20301;-62
2023/05/23 07:01:15;;;;;;;11.50;9.90;;;;;;;21.96;91.01;96559.13;5071238;28;20348;-61
2023/05/23 07:03:44;;;;;;;10.45;9.20;;;;;;;21.95;89.91;96565.56;5070315;28;20693;-61
2023/05/23 07:06:10;;;;;;;11.77;10.75;;;;;;;21.78;90.08;96560.66;5070299;28;20195;-62
2023/05/23 07:08:37;;;;;;;10.73;9.65;;;;;;;21.73;90.39;96560.44;5070621;28;20707;-61
2023/05/23 07:11:06;;;;;;;11.85;10.30;;;;;;;21.84;90.86;96562.47;5071196;28;20221;-62
2023/05/23 07:13:34;;;;;;;10.35;9.55;;;;;;;22.30;88.76;96569.47;5070917;28;20206;-60
2023/05/23 07:16:00;;;;;;;10.48;9.63;;;;;;;22.26;85.20;96573.63;5070833;28;20229;-62
2023/05/23 07:18:29;;;;;;;10.68;9.35;;;;;;;22.22;88.44;96578.63;5071129;28;20199;-61
2023/05/23 07:20:56;;;;;;;10.52;9.63;;;;;;;21.95;89.82;96581.69;5070749;28;20246;-61
2023/05/23 07:23:22;;;;;;;10.93;9.90;;;;;;;21.84;90.76;96578.63;5070629;28;20324;-61
2023/05/23 07:25:49;;;;;;;10.32;9.50;;;;;;;21.63;91.98;96584.31;5071030;28;20198;-61
2023/05/23 07:28:17;;;;;;;11.70;10.60;;;;;;;21.32;94.15;96585.06;5070239;28;20218;-61
2023/05/23 07:30:44;;;;;;;10.95;10.05;;;;;;;21.22;93.36;96592.72;5070656;28;20214;-62
2023/05/23 07:33:11;;;;;;;12.57;10.10;;;;;;;21.02;97.69;96585.69;5070862;28;20263;-61
2023/05/23 07:35:37;;;;;;;12.80;10.55;;;;;;;20.94;96.39;96594.78;5071003;28;20217;-62
2023/05/23 07:38:04;;;;;;;11.80;10.70;;;;;;;20.80;95.88;96604.75;5070872;28;20203;-61
2023/05/23 07:40:30;;;;;;;11.85;10.75;;;;;;;20.67;95.77;96599.38;5070821;28;20255;-61
2023/05/23 07:42:59;;;;;;;12.40;11.23;;;;;;;20.48;97.06;96600.19;5070568;28;20218;-61
2023/05/23 07:45:27;;;;;;;11.38;10.27;;;;;;;20.49;95.15;96601.84;5070831;28;20214;-61
2023/05/23 07:47:53;;;;;;;11.45;10.25;;;;;;;20.43;97.26;96602.69;5075689;28;20873;-62
2023/05/23 07:50:19;;;;;;;13.43;11.48;;;;;;;20.25;97.95;96600.56;5077959;28;20638;-60
2023/05/23 07:52:46;;;;;;;13.15;11.95;;;;;;;20.13;98.93;96607.53;5077468;28;20210;-61
2023/05/23 07:55:13;;;;;;;14.30;12.88;;;;;;;20.09;98.11;96611.66;5074782;28;20203;-62
2023/05/23 07:57:39;;;;;;;13.10;11.85;;;;;;;20.08;98.75;96610.03;5070235;28;20205;-60
2023/05/23 08:00:08;;;;;;;13.68;12.25;;;;;;;20.09;100.00;96616.19;5070302;28;20205;-61
2023/05/23 08:02:36;;;;;;;13.00;11.65;;;;;;;20.15;98.76;96610.03;5070589;28;20310;-62
2023/05/23 08:05:04;;;;;;;13.73;12.43;;;;;;;20.14;96.67;96619.13;5071272;28;20221;-62
2023/05/23 08:07:30;;;;;;;14.40;12.90;;;;;;;20.15;96.08;96613.56;5070286;28;20225;-64
2023/05/23 08:09:57;;;;;;;13.52;12.23;;;;;;;20.02;96.65;96605.44;5070440;28;20215;-61
2023/05/23 08:12:24;;;;;;;14.60;13.13;;;;;;;20.09;97.22;96616.19;5069633;28;20198;-61
2023/05/23 08:14:50;;;;;;;13.68;12.38;;;;;;;20.07;100.00;96613.75;5069806;28;20206;-62
2023/05/23 08:17:16;;;;;;;14.40;12.98;;;;;;;20.07;100.00;96607.53;5073595;28;21344;-62
2023/05/23 08:19:44;;;;;;;14.52;12.73;;;;;;;20.04;99.27;96608.78;5074133;28;20635;-62
2023/05/23 08:22:11;;;;;;;13.52;12.30;;;;;;;20.08;100.00;96607.34;5073870;28;20206;-62
2023/05/23 08:24:38;;;;;;;21.58;13.82;;;;;;;19.96;100.00;96608.13;5073945;28;20238;-61
2023/05/23 08:27:05;;;;;;;15.43;13.82;;;;;;;19.93;99.13;96612.03;5074166;28;20217;-60
2023/05/23 08:29:32;;;;;;;14.23;12.82;;;;;;;19.95;100.00;96606.47;5073890;28;20209;-61
2023/05/23 08:31:58;;;;;;;14.40;13.00;;;;;;;19.99;100.00;96610.41;5073871;28;20202;-61
2023/05/23 08:34:25;;;;;;;16.02;14.02;;;;;;;19.92;99.40;96604.19;5074204;28;20221;-61
2023/05/23 08:36:54;;;;;;;14.98;13.55;;;;;;;20.04;97.71;96610.63;5073539;28;20639;-63
2023/05/23 08:39:20;;;;;;;14.88;13.25;;;;;;;19.98;99.52;96609.56;5077684;28;20198;-62
2023/05/23 08:41:47;;;;;;;16.83;12.98;;;;;;;20.01;100.00;96613.72;5095469;28;20198;-62
2023/05/23 08:44:14;;;;;;;15.18;13.77;;;;;;;20.05;99.01;96621.16;5086916;28;20199;-62
2023/05/23 08:46:44;;;;;;;15.13;13.73;;;;;;;20.04;98.00;96624.88;5081105;28;20210;-61
2023/05/23 08:49:14;;;;;;;14.93;13.63;;;;;;;20.17;95.88;96616.84;5073826;28;20225;-61
2023/05/23 08:51:43;;;;;;;14.93;13.52;;;;;;;20.18;96.13;96623.06;5073742;28;20207;-61
2023/05/23 08:54:12;;;;;;;14.98;13.43;;;;;;;20.24;98.46;96619.53;5073780;28;20210;-61
2023/05/23 08:56:39;;;;;;;14.65;13.25;;;;;;;20.41;97.99;96610.09;5073640;28;20303;-61
2023/05/23 08:59:07;;;;;;;15.95;14.23;;;;;;;20.45;95.38;96616.72;5073267;28;20289;-61
2023/05/23 09:01:36;;;;;;;14.50;13.18;;;;;;;20.50;94.14;96611.56;5073084;28;20217;-61
2023/05/23 09:04:03;;;;;;;15.45;13.90;;;;;;;20.62;97.80;96614.44;5073658;28;20214;-61
2023/05/23 09:06:31;;;;;;;16.42;14.20;;;;;;;20.69;94.72;96613.41;5073139;28;20206;-62
2023/05/23 09:08:57;;;;;;;16.23;13.60;;;;;;;20.69;91.29;96608.03;5073187;28;20218;-61
2023/05/23 09:11:25;;;;;;;15.15;13.63;;;;;;;20.79;89.33;96607.66;5072871;28;20210;-61
2023/05/23 09:13:52;;;;;;;13.85;12.65;;;;;;;20.97;91.27;96612.41;5073054;28;20206;-61
2023/05/23 09:16:19;;;;;;;13.93;12.48;;;;;;;21.10;91.27;96615.06;5073334;28;20206;-61
2023/05/23 09:18:46;;;;;;;13.82;12.48;;;;;;;21.17;89.63;96611.34;5072895;28;20210;-61
2023/05/23 09:21:13;;;;;;;14.13;12.73;;;;;;;21.23;91.83;96602.44;5072964;28;20617;-61
2023/05/23 09:23:41;;;;;;;14.52;12.85;;;;;;;21.33;87.88;96605.50;5072467;28;20245;-61
2023/05/23 09:26:08;;;;;;;16.83;13.15;;;;;;;21.37;86.53;96603.22;5073327;28;20568;-62
2023/05/23 09:28:37;;;;;;;14.45;12.93;;;;;;;21.50;87.73;96599.69;5071391;28;20226;-61
2023/05/23 09:31:06;;;;;;;18.10;13.30;;;;;;;21.58;85.61;96605.66;5072920;28;20539;-61
2023/05/23 09:33:42;;;;;;;13.98;12.68;;;;;;;21.50;82.47;96597.81;5073008;28;20202;-61
2023/05/23 09:36:09;;;;;;;14.00;12.60;;;;;;;21.73;82.34;96600.00;5073274;28;20198;-61
2023/05/23 09:38:38;;;;;;;13.65;12.02;;;;;;;22.21;82.64;96598.53;5072571;28;20199;-61
2023/05/23 09:41:05;;;;;;;14.65;13.02;;;;;;;22.49;78.12;96595.47;5072940;28;20207;-61
2023/05/23 09:43:31;;;;;;;13.68;12.48;;;;;;;23.04;78.44;96588.38;5072170;28;20205;-61
2023/05/23 09:46:07;;;;;;;13.38;11.98;;;;;;;23.46;78.73;96589.41;5072779;28;20297;-61
2023/05/23 09:48:34;;;;;;;13.75;12.45;;;;;;;23.94;73.68;96588.63;5072486;28;20210;-61
2023/05/23 09:51:04;;;;;;;13.43;12.23;;;;;;;24.48;74.57;96590.38;5072775;28;20532;-61
2023/05/23 09:53:30;;;;;;;13.57;12.35;;;;;;;24.78;71.33;96583.84;5071809;28;20203;-61
2023/05/23 09:55:59;;;;;;;14.68;13.18;;;;;;;25.04;68.27;96577.19;5072554;28;20199;-62
2023/05/23 09:58:28;;;;;;;14.23;12.82;;;;;;;25.13;68.04;96583.91;5072121;28;20190;-60
2023/05/23 10:00:59;;;;;;;13.48;12.27;;;;;;;25.06;66.28;96577.78;5072487;28;20202;-61
2023/05/23 10:03:31;;;;;;;13.02;11.82;;;;;;;25.37;65.74;96579.28;5072319;28;20282;-61
2023/05/23 10:06:01;;;;;;;12.10;11.00;;;;;;;25.61;61.91;96575.50;5071781;28;20206;-62
2023/05/23 10:08:34;;;;;;;11.40;10.40;;;;;;;25.96;60.31;96566.47;5070739;28;20229;-61
2023/05/23 10:11:49;;;;;;;12.13;10.93;;;;;;;25.98;59.80;96575.16;5072135;28;20211;-62
2023/05/23 10:14:16;;;;;;;11.35;10.35;;;;;;;26.31;61.10;96569.03;5071339;28;20195;-62
2023/05/23 10:16:50;;;;;;;11.50;10.52;;;;;;;26.57;58.80;96557.59;5072284;28;20233;-63
2023/05/23 10:19:24;;;;;;;12.75;11.45;;;;;;;26.39;59.74;96555.91;5072250;28;20555;-62
2023/05/23 10:21:58;;;;;;;12.38;11.18;;;;;;;26.61;60.90;96556.81;5072103;28;20212;-62
2023/05/23 10:24:25;;;;;;;11.30;10.13;;;;;;;26.49;59.47;96558.81;5072348;28;20234;-62
2023/05/23 10:26:52;;;;;;;11.52;10.52;;;;;;;26.76;57.44;96552.72;5071973;28;20260;-62
2023/05/23 10:29:18;;;;;;;11.60;10.45;;;;;;;26.81;57.80;96558.22;5070982;28;20817;-62
2023/05/23 10:31:45;;;;;;;10.95;9.98;;;;;;;27.20;57.76;96547.22;5071552;28;20207;-62
2023/05/23 10:34:16;;;;;;;11.32;10.32;;;;;;;26.37;56.45;96555.31;5071605;28;20198;-62
2023/05/23 10:36:53;;;;;;;11.07;10.07;;;;;;;26.38;56.44;96543.41;5071516;28;20198;-62
2023/05/23 10:39:24;;;;;;;11.57;10.55;;;;;;;26.29;57.90;96549.50;5071635;28;20194;-61
2023/05/23 10:41:53;;;;;;;11.30;10.38;;;;;;;26.48;58.10;96543.59;5070769;28;20190;-61
2023/05/23 10:44:23;;;;;;;11.48;10.48;;;;;;;26.15;56.73;96544.31;5071108;28;20256;-61
2023/05/23 10:46:52;;;;;;;11.45;10.55;;;;;;;26.64;57.68;96547.41;5071257;28;20281;-62
2023/05/23 10:49:18;;;;;;;12.93;11.65;;;;;;;26.92;60.00;96544.63;5071440;28;20280;-62
2023/05/23 10:51:49;;;;;;;11.90;10.82;;;;;;;27.39;60.33;96534.13;5071521;28;20214;-62
2023/05/23 10:54:19;;;;;;;12.52;11.32;;;;;;;27.42;55.90;96536.34;5072312;28;20198;-63
2023/05/23 10:56:46;;;;;;;11.57;10.57;;;;;;;27.35;55.28;96533.00;5071263;28;20271;-62
2023/05/23 10:59:20;;;;;;;11.73;10.27;;;;;;;26.90;56.53;96529.63;5072488;28;20316;-63
2023/05/23 11:01:47;;;;;;;11.73;10.73;;;;;;;26.53;58.08;96535.56;5076618;28;20831;-63
2023/05/23 11:04:14;;;;;;;11.50;10.43;;;;;;;26.16;61.89;96523.47;5082580;28;20207;-62
2023/05/23 11:06:43;;;;;;;11.10;10.10;;;;;;;26.06;61.19;96529.53;5081847;28;20198;-62
2023/05/23 11:09:12;;;;;;;11.20;10.27;;;;;;;26.32;58.22;96517.28;5080896;28;20231;-63
2023/05/23 11:11:52;;;;;;;11.52;10.43;;;;;;;26.69;60.39;96515.72;5072622;28;20207;-62
2023/05/23 11:14:19;;;;;;;11.00;10.00;;;;;;;26.90;58.96;96513.34;5071520;28;20209;-61
2023/05/23 11:16:47;;;;;;;11.40;10.20;;;;;;;27.02;59.37;96509.47;5071846;28;20210;-63
2023/05/23 11:19:27;;;;;;;10.90;10.00;;;;;;;26.92;56.30;96506.63;5072221;28;20217;-63
2023/05/23 11:21:55;;;;;;;10.50;9.57;;;;;;;26.42;55.80;96512.03;5071626;28;20206;-62